Uni-arise — 3FSV7 — position and weather

sailwx.info

Track history (hours):
 
Tides and Currents Weather Stations Pressure Air Temp Water Temp Dewpoint Dewpoint Depression Visibility Wind Speed Wind Dir Waves Ship Positions

Uni-arise

Last reported at 2014-Jul-23 02:31 UTC. Time now 2014-Jul-23 03:27 UTC.
Position N 01°14' E 103°56'.

Length 165 m; draft 7 m.

Type: Cargo ship. MMSI: 351608000.

Date/timePositionNaut miles runAvg speedWind from/ knotsBaromVisibWave heightAir tempDewpointWater temp
2014-Jul-23 02:31N 01°14' E 103°56'  
2014-Jul-20 21:14N 01°09' E 103°45'1015.3
2014-Jul-20 20:34N 01°14' E 103°55'  
2014-Jul-15 07:06N 01°15' E 104°05'815.3
2014-Jul-15 06:33N 01°13' E 103°56'10 9.7
2014-Jul-15 05:33N 01°14' E 103°47'3 3.1
2014-Jul-15 04:33N 01°17' E 103°46'0 0.0
2014-Jul-15 03:26N 01°17' E 103°46'0 0.0
2014-Jul-15 02:32N 01°17' E 103°46'0 0.0
2014-Jul-15 01:31N 01°17' E 103°46'0 0.0
2014-Jul-15 00:34N 01°17' E 103°46'0 0.0
2014-Jul-14 23:34N 01°17' E 103°46'0 0.0
2014-Jul-14 22:33N 01°17' E 103°46'0 0.0
2014-Jul-14 21:33N 01°17' E 103°46'0 0.0
2014-Jul-14 20:33N 01°17' E 103°46'0 0.0
2014-Jul-14 19:34N 01°17' E 103°46'0 0.0
2014-Jul-14 18:33N 01°17' E 103°46'0 0.0
2014-Jul-14 16:31N 01°17' E 103°46'3 3.6
2014-Jul-14 15:34N 01°14' E 103°47'6 2.8
2014-Jul-14 13:28N 01°15' E 103°53'0 0.0
2014-Jul-14 12:28N 01°15' E 103°53'0 0.0
2014-Jul-14 11:28N 01°15' E 103°53'0 0.0
2014-Jul-14 10:31N 01°15' E 103°53'0 0.0
2014-Jul-14 09:16N 01°15' E 103°53'0 0.0
2014-Jul-14 08:25N 01°15' E 103°53'0 0.1
2014-Jul-14 07:32N 01°15' E 103°53'0 0.0
2014-Jul-14 06:29N 01°15' E 103°53'0 0.1
2014-Jul-14 05:29N 01°15' E 103°53'0 0.0
2014-Jul-14 03:30N 01°15' E 103°53'  
Track history (hours):
 
Tides and Currents Weather Stations Pressure Air Temp Water Temp Dewpoint Dewpoint Depression Visibility Wind Speed Wind Dir Waves Ship Positions

Uni-arise

Last reported at 2014-Jul-23 02:31 UTC. Time now 2014-Jul-23 03:27 UTC.
Position N 01°14' E 103°56'.

Length 165 m; draft 7 m.

Type: Cargo ship. MMSI: 351608000.

Date/timePositionNaut miles runAvg speedWind from/ knotsBaromVisibWave heightAir tempDewpointWater temp
2014-Jul-23 02:31N 01°14' E 103°56'  
2014-Jul-20 21:14N 01°09' E 103°45'1015.3
2014-Jul-20 20:34N 01°14' E 103°55'  
2014-Jul-15 07:06N 01°15' E 104°05'815.3
2014-Jul-15 06:33N 01°13' E 103°56'10 9.7
2014-Jul-15 05:33N 01°14' E 103°47'3 3.1
2014-Jul-15 04:33N 01°17' E 103°46'0 0.0
2014-Jul-15 03:26N 01°17' E 103°46'0 0.0
2014-Jul-15 02:32N 01°17' E 103°46'0 0.0
2014-Jul-15 01:31N 01°17' E 103°46'0 0.0
2014-Jul-15 00:34N 01°17' E 103°46'0 0.0
2014-Jul-14 23:34N 01°17' E 103°46'0 0.0
2014-Jul-14 22:33N 01°17' E 103°46'0 0.0
2014-Jul-14 21:33N 01°17' E 103°46'0 0.0
2014-Jul-14 20:33N 01°17' E 103°46'0 0.0
2014-Jul-14 19:34N 01°17' E 103°46'0 0.0
2014-Jul-14 18:33N 01°17' E 103°46'0 0.0
2014-Jul-14 16:31N 01°17' E 103°46'3 3.6
2014-Jul-14 15:34N 01°14' E 103°47'6 2.8
2014-Jul-14 13:28N 01°15' E 103°53'0 0.0
2014-Jul-14 12:28N 01°15' E 103°53'0 0.0
2014-Jul-14 11:28N 01°15' E 103°53'0 0.0
2014-Jul-14 10:31N 01°15' E 103°53'0 0.0
2014-Jul-14 09:16N 01°15' E 103°53'0 0.0
2014-Jul-14 08:25N 01°15' E 103°53'0 0.1
2014-Jul-14 07:32N 01°15' E 103°53'0 0.0
2014-Jul-14 06:29N 01°15' E 103°53'0 0.1
2014-Jul-14 05:29N 01°15' E 103°53'0 0.0
2014-Jul-14 03:30N 01°15' E 103°53'  

Dump ship's entire track history